Weather at Little Rock Air Force Base

Public forecast

Using degrees Fahrenheit for public forecast. Weather courtesy of forecast.io.

Current aviation weather report (METAR) for Little Rock Air Force Base

Retrieved 2021/06/16 19:56 UTC (18 minutes ago):

KLRF 161956Z AUTO 18007KT 10SM FEW200 33/17 A3003 RMK AO2 SLP169 T03260168

Aviation forecast (TAF) for Little Rock Air Force Base

Retrieved 2021/06/16 15:00 UTC (5 hours ago):

TAF TAF KLRF 161500Z 1615/1721 VRB06KT 9999 SCT070 QNH3002INS BECMG 1620/1621 VRB06KT 9999 FEW045 QNH2997INS BECMG 1715/1716 21009KT 9999 SCT040 BKN050 QNH2992INS TX32/1620Z TN23/1708Z